Flight Track Log - Related Links

Times and Time Zones

All times are in EDT time to prevent confusion due to time zone crossing. See the ASQ6127 flight status page for this flight to view local times or setup timezone preferences in your user account.


Time Position Orientation Groundspeed Altitude Reporting Facility
EDT Latitude Longitude Course Direction KTS MPH feet Rate Location/Type
Mon 06:18:09 AM 35.7850 -84.0592 27° Northeast 204 235 3,000  Level Atlanta Center
Mon 06:19:09 AM 35.8331 -84.0567 North 225 259 4,900 1,950 Climbing Atlanta Center
Mon 06:20:00 AM 36.0605 -83.7854 30° Northeast  Level FlightAware Approximate
Mon 06:20:09 AM 35.8811 -83.9953 46° Northeast 196 226 6,900  Level Atlanta Center
Mon 06:21:00 AM 36.1503 -83.7221 28° Northeast  Level FlightAware Approximate
Mon 06:21:09 AM 35.9456 -83.9336 38° Northeast 238 274 9,300  Level Atlanta Center
Mon 06:22:00 AM 36.2413 -83.6614 28° Northeast  Level FlightAware Approximate
Mon 06:22:09 AM 36.0081 -83.8744 37° Northeast 271 312 11,000  Level Atlanta Center
Mon 06:23:00 AM 36.3328 -83.6016 27° Northeast  Level FlightAware Approximate
Mon 06:23:09 AM 36.0811 -83.7997 40° Northeast 304 350 12,100  Level Atlanta Center
Mon 06:24:09 AM 36.1456 -83.7147 47° Northeast 328 377 13,300 1,850 Climbing Atlanta Center
Mon 06:25:09 AM 36.2036 -83.6244 51° Northeast 333 383 15,800 2,300 Climbing Atlanta Center
Mon 06:26:09 AM 36.2617 -83.5367 51° Northeast 333 383 17,900 1,850 Climbing Atlanta Center
Mon 06:27:09 AM 36.3197 -83.4486 51° Northeast 327 376 19,500 1,350 Climbing Atlanta Center
Mon 06:28:09 AM 36.3775 -83.3581 52° Northeast 332 382 20,600 750 Climbing Atlanta Center
Mon 06:29:09 AM 36.4417 -83.2567 52° Northeast 354 407 21,000 545 Climbing Atlanta Center
Mon 06:30:10 AM 36.5117 -83.1503 51° Northeast 374 430 21,700 978 Climbing Atlanta Center
Mon 06:32:07 AM 36.6403 -82.9517 51° Northeast 397 457 23,900 1,112 Climbing Indianapolis Center
Mon 06:33:08 AM 36.7075 -82.8456 52° Northeast 395 455 25,000 1,190 Climbing Indianapolis Center
Mon 06:34:08 AM 36.7850 -82.7239 51° Northeast 389 448 26,300 1,240 Climbing Indianapolis Center
Mon 06:35:09 AM 36.8506 -82.6208 51° Northeast 384 442 27,500 1,140 Climbing Indianapolis Center
Mon 06:36:09 AM 36.9158 -82.5186 51° Northeast 379 436 28,600 1,140 Climbing Indianapolis Center
Mon 06:37:10 AM 36.9811 -82.4158 51° Northeast 378 435 29,800 1,082 Climbing Indianapolis Center
Mon 06:38:11 AM 37.0458 -82.3139 51° Northeast 375 432 30,800 595 Climbing Indianapolis Center
Mon 06:39:11 AM 37.1131 -82.2061 52° Northeast 389 448 31,000 99 Climbing Indianapolis Center
Mon 06:40:12 AM 37.1850 -82.0917 52° Northeast 412 474 31,000  Level Indianapolis Center
Mon 06:41:12 AM 37.2583 -81.9753 52° Northeast 423 487 31,000  Level Indianapolis Center
Mon 06:42:13 AM 37.3319 -81.8561 52° Northeast 428 493 31,000  Level Indianapolis Center
Mon 06:43:14 AM 37.4067 -81.7356 52° Northeast 435 501 31,000  Level Indianapolis Center
Mon 06:44:15 AM 37.4825 -81.6133 52° Northeast 440 506 31,000  Level Indianapolis Center
Mon 06:45:15 AM 37.5561 -81.4953 52° Northeast 442 509 31,000  Level Indianapolis Center
Mon 06:46:16 AM 37.6289 -81.3756 52° Northeast 442 509 31,000  Level Indianapolis Center
Mon 06:47:12 AM 37.6992 -81.2586 53° Northeast 456 525 31,000  Level Washington Center
Mon 06:48:12 AM 37.7719 -81.1353 53° Northeast 443 510 31,000  Level Washington Center
Mon 06:49:12 AM 37.8236 -81.0050 63° Northeast 424 488 31,000  Level Washington Center
Mon 06:50:12 AM 37.8847 -80.8542 63° Northeast 419 482 31,000  Level Washington Center
Mon 06:51:12 AM 37.9447 -80.7214 60° Northeast 424 488 31,000  Level Washington Center
Mon 06:52:13 AM 38.0047 -80.5858 61° Northeast 424 488 31,000  Level Washington Center
Mon 06:53:14 AM 38.0522 -80.4439 67° East 430 495 31,000  Level Washington Center
Mon 06:54:14 AM 38.0972 -80.3069 67° East 443 510 31,000  Level Washington Center
Mon 06:55:13 AM 38.1508 -80.1600 65° Northeast 448 516 31,000 -150 Level Washington Center
Mon 06:56:14 AM 38.2025 -80.0097 66° East 453 521 30,700 -1,017 Descending Washington Center
Mon 06:57:11 AM 38.2517 -79.8594 67° East 453 521 29,000 -1,780 Descending Washington Center
Mon 06:58:12 AM 38.3031 -79.7061 67° East 458 527 27,200 -1,770 Descending Washington Center
Mon 06:59:13 AM 38.3564 -79.5422 67° East 458 527 25,400 -1,600 Descending Washington Center
Mon 07:00:12 AM 38.4047 -79.4017 66° East 453 521 24,000 -850 Descending Washington Center
Mon 07:01:13 AM 38.4464 -79.2714 68° East 423 487 23,700 -958 Descending Washington Center
Mon 07:02:11 AM 38.4900 -79.1381 67° East 405 466 22,100 -1,815 Descending Washington Center
Mon 07:03:12 AM 38.5311 -79.0128 67° East 398 458 20,100 -1,884 Descending Washington Center
Mon 07:04:12 AM 38.5636 -78.9000 70° East 385 443 18,300 -1,770 Descending Washington Center
Mon 07:05:14 AM 38.6042 -78.7822 66° East 367 422 16,500 -1,900 Descending Washington Center
Mon 07:06:12 AM 38.6406 -78.6669 68° East 356 410 14,500 -1,881 Descending Washington Center
Mon 07:07:12 AM 38.6744 -78.5619 68° East 341 392 12,800 -1,686 Descending Washington Center
Mon 07:08:13 AM 38.7042 -78.4622 69° East 320 368 11,100 -1,033 Descending Washington Center
Mon 07:09:14 AM 38.7375 -78.3703 65° Northeast 297 342 10,700 -908 Descending Washington Center
Mon 07:10:12 AM 38.7811 -78.2839 57° Northeast 282 325 9,300 -1,220 Descending Washington Center
Mon 07:11:12 AM 38.8225 -78.2028 57° Northeast 271 312 8,300 -1,033 Descending Washington Center
Mon 07:12:14 AM 38.8617 -78.1217 58° Northeast 265 305 7,200 -984 Descending Washington Center
Mon 07:13:14 AM 38.8969 -78.0375 62° Northeast 265 305 6,300 -600 Descending Washington Center
Mon 07:14:14 AM 38.9172 -77.9528 73° East 260 299 6,000 -153 Descending Washington Center
Mon 07:15:12 AM 38.9442 -77.8522 71° East 255 293 6,000  Level Washington Center
Mon 07:16:12 AM 38.9625 -77.7700 74° East 255 293 6,000  Level Washington Center
Mon 07:17:59 AM 38.9333 -77.6167 104° East 248 285 6,000  Level Potomac TRACON
Mon 07:18:59 AM 38.8667 -77.5833 159° South 247 284 6,000 -100 Level Potomac TRACON
Mon 07:19:59 AM 38.8000 -77.5667 169° South 191 220 5,800 -600 Descending Potomac TRACON
Mon 07:20:59 AM 38.7500 -77.5833 195° South 184 212 4,800 -947 Descending Potomac TRACON
Mon 07:21:53 AM 38.7167 -77.5667 159° South 202 232 4,000 -632 Descending Potomac TRACON
Mon 07:22:53 AM 38.7167 -77.5000 90° East 193 222 3,600 -263 Descending Potomac TRACON
Mon 07:23:47 AM 38.7667 -77.4667 27° Northeast 207 238 3,500 -474 Descending Potomac TRACON
Mon 07:24:47 AM 38.8167 -77.4667 360° North 214 246 2,700 -900 Descending Potomac TRACON
Mon 07:25:47 AM 38.8667 -77.4667 360° North 165 190 1,700 -850 Descending Potomac TRACON
Mon 07:26:47 AM 38.9000 -77.4667 360° North 130 150 1,000 -700 Descending Potomac TRACON

Login

Don't have an account? Register now (free) for customized features, flight alerts, and more!